Time;durP1;ratioP1;P1;durP2;ratioP2;P2;SDS_P1;SDS_P2;PMS_P1;PMS_P2;Temp;Humidity;BMP_temperature;BMP_pressure;BME280_temperature;BME280_humidity;BME280_pressure;Samples;Min_cycle;Max_cycle;Signal;HPM_P1;HPM_P2
2022/06/17 00:01:15;;;;;;;18.77;17.05;;;;;;;;;;9506158;30;20122;-73
2022/06/17 00:06:10;;;;;;;16.85;15.07;;;;;;;;;;9505965;30;20135;-74
2022/06/17 00:11:05;;;;;;;18.42;13.18;;;;;;;;;;9500950;30;20067;-74
2022/06/17 00:16:00;;;;;;;16.52;15.13;;;;;;;;;;9489582;30;20118;-74
2022/06/17 00:20:54;;;;;;;18.27;16.52;;;;;;;;;;9492624;30;20159;-74
2022/06/17 00:25:48;;;;;;;21.00;18.85;;;;;;;;;;9505910;30;20076;-76
2022/06/17 00:30:41;;;;;;;22.35;20.10;;;;;;;;;;9505840;30;20496;-77
2022/06/17 00:35:54;;;;;;;25.98;22.55;;;;;;;;;;9503604;30;20056;-76
2022/06/17 00:40:48;;;;;;;24.27;22.08;;;;;;;;;;9479060;30;20069;-77
2022/06/17 00:45:55;;;;;;;22.85;20.95;;;;;;;;;;9470427;30;20057;-76
2022/06/17 00:51:02;;;;;;;49.20;21.88;;;;;;;;;;9480978;30;20642;-76
2022/06/17 00:56:16;;;;;;;21.52;19.35;;;;;;;;;;9474701;30;20514;-76
2022/06/17 01:01:11;;;;;;;20.75;18.75;;;;;;;;;;9456949;30;20102;-76
2022/06/17 01:06:09;;;;;;;24.42;20.15;;;;;;;;;;9482304;30;20060;-77
2022/06/17 01:11:02;;;;;;;30.65;19.70;;;;;;;;;;9488949;30;20510;-77
2022/06/17 01:15:55;;;;;;;21.33;18.48;;;;;;;;;;9481474;30;20060;-76
2022/06/17 01:20:55;;;;;;;20.33;18.70;;;;;;;;;;9482796;30;20088;-77
2022/06/17 01:25:49;;;;;;;21.85;19.92;;;;;;;;;;9466566;30;20067;-75
2022/06/17 01:30:58;;;;;;;20.98;18.90;;;;;;;;;;9480694;30;20477;-76
2022/06/17 01:36:14;;;;;;;22.92;20.63;;;;;;;;;;9461252;30;20110;-76
2022/06/17 01:41:08;;;;;;;21.58;19.70;;;;;;;;;;9480431;30;20067;-77
2022/06/17 01:46:06;;;;;;;20.40;18.45;;;;;;;;;;9475775;30;20061;-77
2022/06/17 01:51:00;;;;;;;20.55;18.50;;;;;;;;;;9481355;30;20504;-66
2022/06/17 01:56:02;;;;;;;22.83;20.05;;;;;;;;;;9458696;30;20131;-66
2022/06/17 02:00:57;;;;;;;21.20;18.55;;;;;;;;;;9472926;30;20065;-66
2022/06/17 02:06:06;;;;;;;17.77;15.43;;;;;;;;;;9483464;30;20075;-66
2022/06/17 02:11:02;;;;;;;18.08;16.48;;;;;;;;;;9478618;30;20057;-69
2022/06/17 02:16:04;;;;;;;20.73;18.70;;;;;;;;;;9507855;30;20077;-67
2022/06/17 02:21:28;;;;;;;21.40;19.17;;;;;;;;;;9481432;30;20063;-66
2022/06/17 02:26:21;;;;;;;21.67;18.30;;;;;;;;;;9457830;30;20124;-66
2022/06/17 02:31:16;;;;;;;18.98;17.38;;;;;;;;;;9473056;30;20063;-66
2022/06/17 02:36:15;;;;;;;22.50;20.40;;;;;;;;;;9473589;30;20060;-66
2022/06/17 02:41:13;;;;;;;20.37;18.40;;;;;;;;;;9514623;30;20064;-66
2022/06/17 02:46:30;;;;;;;17.27;15.77;;;;;;;;;;9482798;30;20060;-67
2022/06/17 02:51:24;;;;;;;19.05;15.05;;;;;;;;;;9508042;30;20501;-67
2022/06/17 02:56:28;;;;;;;16.23;12.55;;;;;;;;;;9509158;30;20188;-69
2022/06/17 03:01:24;;;;;;;17.02;15.45;;;;;;;;;;9488294;30;20070;-67
2022/06/17 03:06:34;;;;;;;21.25;17.90;;;;;;;;;;9497695;30;20592;-66
2022/06/17 03:11:28;;;;;;;22.88;18.48;;;;;;;;;;9484614;30;20060;-66
2022/06/17 03:16:23;;;;;;;19.63;18.00;;;;;;;;;;9492133;30;20121;-66
2022/06/17 03:21:20;;;;;;;20.20;18.08;;;;;;;;;;9505679;30;20071;-66
2022/06/17 03:26:26;;;;;;;24.25;18.98;;;;;;;;;;9506097;30;20062;-66
2022/06/17 03:31:38;;;;;;;20.08;18.15;;;;;;;;;;9496315;30;20048;-66
2022/06/17 03:36:32;;;;;;;20.50;18.40;;;;;;;;;;9511373;30;20063;-67
2022/06/17 03:41:53;;;;;;;20.75;18.60;;;;;;;;;;9490719;30;20068;-66
2022/06/17 03:46:52;;;;;;;22.83;19.10;;;;;;;;;;9518798;30;20056;-66
2022/06/17 03:51:49;;;;;;;21.42;19.02;;;;;;;;;;9475598;30;20472;-66
2022/06/17 03:56:49;;;;;;;22.85;20.98;;;;;;;;;;9491367;30;20058;-67
2022/06/17 04:01:46;;;;;;;23.08;20.98;;;;;;;;;;9487264;30;20114;-67
2022/06/17 04:06:43;;;;;;;21.80;19.48;;;;;;;;;;9493312;30;20064;-67
2022/06/17 04:11:39;;;;;;;21.30;19.20;;;;;;;;;;9476780;30;20509;-66
2022/06/17 04:16:44;;;;;;;23.95;21.55;;;;;;;;;;9503229;30;20060;-67
2022/06/17 04:21:39;;;;;;;28.50;21.98;;;;;;;;;;9489591;30;20086;-67
2022/06/17 04:26:34;;;;;;;21.55;19.80;;;;;;;;;;9513420;30;20052;-66
2022/06/17 04:31:36;;;;;;;19.73;17.75;;;;;;;;;;9487830;30;20063;-68
2022/06/17 04:36:44;;;;;;;20.52;18.42;;;;;;;;;;9523179;30;20056;-67
2022/06/17 04:41:39;;;;;;;21.15;19.15;;;;;;;;;;9490806;30;20056;-66
2022/06/17 04:47:04;;;;;;;32.28;21.92;;;;;;;;;;9503709;30;20055;-67
2022/06/17 04:52:36;;;;;;;23.52;21.35;;;;;;;;;;9501529;30;20093;-67
2022/06/17 04:57:56;;;;;;;21.40;19.30;;;;;;;;;;9494832;30;20121;-68
2022/06/17 05:02:49;;;;;;;19.67;17.77;;;;;;;;;;9519271;30;20056;-67
2022/06/17 05:08:14;;;;;;;18.15;16.33;;;;;;;;;;9514808;30;20060;-67
2022/06/17 05:13:13;;;;;;;19.05;15.68;;;;;;;;;;9497721;30;20078;-65
2022/06/17 05:18:06;;;;;;;17.95;16.17;;;;;;;;;;9512740;30;20118;-65
2022/06/17 05:23:04;;;;;;;19.15;17.48;;;;;;;;;;9496278;30;20576;-64
2022/06/17 05:28:09;;;;;;;15.20;12.85;;;;;;;;;;9512873;30;20052;-65
2022/06/17 05:33:04;;;;;;;16.67;12.43;;;;;;;;;;9480216;30;20714;-64
2022/06/17 05:37:59;;;;;;;19.73;13.95;;;;;;;;;;9507990;30;20270;-72
2022/06/17 05:42:54;;;;;;;16.73;13.90;;;;;;;;;;9520897;30;20051;-72
2022/06/17 05:47:48;;;;;;;15.18;13.63;;;;;;;;;;9522088;30;20052;-72
2022/06/17 05:53:04;;;;;;;24.83;15.13;;;;;;;;;;9491663;30;20074;-72
2022/06/17 05:58:02;;;;;;;18.58;15.45;;;;;;;;;;9507030;30;20053;-71
2022/06/17 06:03:01;;;;;;;16.90;15.20;;;;;;;;;;9515189;30;20344;-74
2022/06/17 06:08:00;;;;;;;17.08;14.75;;;;;;;;;;9506901;30;20082;-73
2022/06/17 06:13:03;;;;;;;16.85;15.23;;;;;;;;;;9509243;30;20569;-73
2022/06/17 06:18:08;;;;;;;19.48;17.15;;;;;;;;;;9501275;30;20052;-67
2022/06/17 06:23:02;;;;;;;25.73;23.27;;;;;;;;;;9508129;30;20412;-65
2022/06/17 06:27:55;;;;;;;26.65;24.10;;;;;;;;;;9492118;30;20063;-65
2022/06/17 06:32:53;;;;;;;26.77;23.85;;;;;;;;;;9493343;30;20125;-65
2022/06/17 06:37:47;;;;;;;24.40;20.42;;;;;;;;;;9490569;30;20056;-65
2022/06/17 06:42:41;;;;;;;21.67;19.58;;;;;;;;;;9494395;30;20060;-66
2022/06/17 06:47:58;;;;;;;21.45;19.25;;;;;;;;;;9506300;30;20130;-65
2022/06/17 06:52:53;;;;;;;23.27;20.83;;;;;;;;;;9491607;30;20091;-65
2022/06/17 06:57:49;;;;;;;20.42;18.55;;;;;;;;;;9491468;30;20464;-65
2022/06/17 07:02:42;;;;;;;20.65;14.35;;;;;;;;;;9491697;30;20067;-66
2022/06/17 07:07:35;;;;;;;18.60;12.73;;;;;;;;;;9504564;30;20056;-66
2022/06/17 07:12:29;;;;;;;13.90;11.43;;;;;;;;;;9506994;30;20051;-65
2022/06/17 07:17:23;;;;;;;16.48;12.43;;;;;;;;;;9507082;30;20045;-66
2022/06/17 07:22:17;;;;;;;22.75;11.38;;;;;;;;;;9509726;30;20463;-65
2022/06/17 07:27:10;;;;;;;12.13;10.93;;;;;;;;;;9506497;30;20656;-65
2022/06/17 07:32:05;;;;;;;13.93;10.23;;;;;;;;;;9509904;30;20084;-66
2022/06/17 07:42:17;;;;;;;13.30;11.20;;;;;;;;;;9505155;30;20063;-69
2022/06/17 07:47:18;;;;;;;11.02;9.98;;;;;;;;;;9501676;30;20076;-68
2022/06/17 07:52:12;;;;;;;12.50;9.70;;;;;;;;;;9504380;30;20135;-66
2022/06/17 07:57:07;;;;;;;13.30;10.63;;;;;;;;;;9509623;30;20048;-66
2022/06/17 08:02:01;;;;;;;12.13;10.63;;;;;;;;;;9504102;30;20564;-66
2022/06/17 08:06:55;;;;;;;13.82;10.45;;;;;;;;;;9507256;30;20056;-61
2022/06/17 08:11:52;;;;;;;;;;;;;;;;;;9508160;30;20067;-61
2022/06/17 08:16:46;;;;;;;12.63;10.75;;;;;;;;;;9505228;30;19926;-61
2022/06/17 08:21:40;;;;;;;12.68;9.60;;;;;;;;;;9508946;30;20067;-62
2022/06/17 08:26:50;;;;;;;15.93;9.32;;;;;;;;;;9501698;30;20068;-60
2022/06/17 08:31:44;;;;;;;11.30;7.65;;;;;;;;;;9506957;30;20052;-60
2022/06/17 08:36:40;;;;;;;12.23;8.95;;;;;;;;;;9503699;30;20094;-60
2022/06/17 08:41:35;;;;;;;13.60;7.40;;;;;;;;;;9501334;30;20114;-61
2022/06/17 08:46:54;;;;;;;10.68;6.95;;;;;;;;;;9505066;30;20500;-60
2022/06/17 08:52:17;;;;;;;9.73;7.88;;;;;;;;;;9503425;30;20527;-60
2022/06/17 08:57:28;;;;;;;9.90;7.38;;;;;;;;;;9504244;30;20424;-61
2022/06/17 09:02:37;;;;;;;8.82;7.38;;;;;;;;;;9504806;30;20063;-61
2022/06/17 09:08:02;;;;;;;13.00;6.88;;;;;;;;;;9502585;30;20059;-60
2022/06/17 09:12:59;;;;;;;10.52;7.45;;;;;;;;;;9502475;30;20084;-62
2022/06/17 09:18:06;;;;;;;9.07;7.18;;;;;;;;;;9500281;30;20497;-61
2022/06/17 09:23:03;;;;;;;15.32;7.45;;;;;;;;;;9503022;30;20060;-61
2022/06/17 09:27:57;;;;;;;13.65;7.53;;;;;;;;;;9503339;30;20147;-61
2022/06/17 09:33:09;;;;;;;10.90;7.35;;;;;;;;;;9489036;30;20044;-62
2022/06/17 09:38:08;;;;;;;7.40;6.55;;;;;;;;;;9502912;30;20065;-62
2022/06/17 09:43:10;;;;;;;11.25;6.90;;;;;;;;;;9502467;30;20082;-62
2022/06/17 09:48:05;;;;;;;9.65;6.00;;;;;;;;;;9505880;30;20082;-63
2022/06/17 09:53:07;;;;;;;11.85;6.53;;;;;;;;;;9509285;30;20060;-62
2022/06/17 09:58:07;;;;;;;9.32;6.13;;;;;;;;;;9509702;30;20059;-62
2022/06/17 10:03:20;;;;;;;16.90;6.53;;;;;;;;;;9507380;30;20143;-60
2022/06/17 10:08:43;;;;;;;16.20;7.03;;;;;;;;;;9509008;30;20056;-61
2022/06/17 10:14:22;;;;;;;12.40;5.72;;;;;;;;;;9999760;24;20139;-60
2022/06/17 10:19:33;;;;;;;10.35;7.00;;;;;;;;;;9497199;30;20063;-72
2022/06/17 10:24:43;;;;;;;10.75;6.75;;;;;;;;;;9496444;30;20040;-72
2022/06/17 10:29:58;;;;;;;10.93;6.57;;;;;;;;;;9496791;30;20126;-72
2022/06/17 10:34:54;;;;;;;9.60;5.53;;;;;;;;;;9495862;30;20113;-71
2022/06/17 10:39:51;;;;;;;6.38;5.57;;;;;;;;;;9497793;30;20056;-70
2022/06/17 10:44:48;;;;;;;10.40;5.53;;;;;;;;;;9499591;30;20143;-72
2022/06/17 10:49:51;;;;;;;10.10;5.55;;;;;;;;;;9500960;30;20489;-72
2022/06/17 10:54:46;;;;;;;10.02;5.15;;;;;;;;;;9505479;30;20084;-73
2022/06/17 10:59:42;;;;;;;7.68;5.00;;;;;;;;;;9497718;30;20058;-73
2022/06/17 11:04:39;;;;;;;6.40;4.47;;;;;;;;;;9498554;30;20107;-72
2022/06/17 11:09:57;;;;;;;10.25;5.18;;;;;;;;;;9493676;30;20397;-73
2022/06/17 11:15:00;;;;;;;7.63;4.15;;;;;;;;;;9491163;29;20082;-72
2022/06/17 11:19:57;;;;;;;6.60;4.45;;;;;;;;;;9579539;30;20062;-72
2022/06/17 11:24:54;;;;;;;10.63;4.22;;;;;;;;;;9577900;29;20554;-73
2022/06/17 11:29:50;;;;;;;11.95;5.72;;;;;;;;;;9559655;30;20411;-73
2022/06/17 11:34:52;;;;;;;5.68;4.55;;;;;;;;;;9574814;30;20055;-72
2022/06/17 11:39:45;;;;;;;10.10;5.43;;;;;;;;;;9577650;30;20589;-72
2022/06/17 11:45:23;;;;;;;10.65;4.55;;;;;;;;;;9578516;30;20138;-72
2022/06/17 11:50:20;;;;;;;13.23;4.50;;;;;;;;;;9570475;29;20134;-72
2022/06/17 11:55:15;;;;;;;11.15;4.90;;;;;;;;;;9560439;30;20059;-73
2022/06/17 12:00:49;;;;;;;10.02;4.50;;;;;;;;;;9572197;30;20116;-72
2022/06/17 12:05:55;;;;;;;7.43;4.63;;;;;;;;;;9574032;29;20075;-72
2022/06/17 12:10:52;;;;;;;5.60;4.35;;;;;;;;;;9574402;29;20051;-73
2022/06/17 12:15:52;;;;;;;7.20;4.13;;;;;;;;;;9573442;29;20055;-72
2022/06/17 12:20:57;;;;;;;8.10;4.53;;;;;;;;;;9573220;30;20146;-72
2022/06/17 12:26:03;;;;;;;6.30;4.18;;;;;;;;;;9575265;30;20443;-74
2022/06/17 12:31:07;;;;;;;7.20;4.38;;;;;;;;;;9559854;30;20426;-72
2022/06/17 12:36:41;;;;;;;7.35;4.65;;;;;;;;;;9575927;29;20051;-74
2022/06/17 12:41:42;;;;;;;8.15;5.38;;;;;;;;;;9543221;30;20059;-72
2022/06/17 12:47:04;;;;;;;9.05;5.32;;;;;;;;;;9574238;30;20116;-72
2022/06/17 12:57:38;;;;;;;10.32;4.88;;;;;;;;;;9572402;29;20055;-72
2022/06/17 13:02:45;;;;;;;7.00;4.55;;;;;;;;;;9560242;29;20519;-73
2022/06/17 13:07:50;;;;;;;7.63;4.60;;;;;;;;;;9573971;29;20071;-73
2022/06/17 13:12:44;;;;;;;10.80;4.00;;;;;;;;;;9573222;30;20491;-72
2022/06/17 13:18:06;;;;;;;8.07;4.80;;;;;;;;;;9556630;30;20138;-72
2022/06/17 13:23:11;;;;;;;15.57;4.47;;;;;;;;;;9561176;30;20419;-73
2022/06/17 13:28:19;;;;;;;9.50;4.63;;;;;;;;;;9580771;30;20555;-73
2022/06/17 13:33:40;;;;;;;10.18;4.72;;;;;;;;;;9563553;29;20404;-74
2022/06/17 13:38:50;;;;;;;12.82;4.55;;;;;;;;;;9561117;30;20138;-74
2022/06/17 13:43:48;;;;;;;8.45;4.80;;;;;;;;;;9568407;30;20518;-73
2022/06/17 13:48:54;;;;;;;5.72;4.15;;;;;;;;;;9560476;29;20055;-72
2022/06/17 13:54:25;;;;;;;7.60;3.90;;;;;;;;;;9562719;29;20079;-73
2022/06/17 13:59:44;;;;;;;10.88;4.82;;;;;;;;;;9580368;30;20518;-73
2022/06/17 14:05:02;;;;;;;9.40;4.63;;;;;;;;;;9579602;30;20112;-73
2022/06/17 14:09:56;;;;;;;11.13;4.32;;;;;;;;;;9578768;30;20087;-73
2022/06/17 14:14:51;;;;;;;7.40;4.35;;;;;;;;;;9579456;30;20157;-74
2022/06/17 14:20:12;;;;;;;8.77;4.22;;;;;;;;;;9577452;30;20058;-72
2022/06/17 14:25:08;;;;;;;7.63;4.85;;;;;;;;;;9561457;30;20055;-71
2022/06/17 14:30:16;;;;;;;6.95;4.30;;;;;;;;;;9579882;29;20053;-71
2022/06/17 14:35:27;;;;;;;7.32;5.80;;;;;;;;;;9577273;29;20051;-69
2022/06/17 14:40:25;;;;;;;6.45;4.93;;;;;;;;;;9578487;30;20138;-72
2022/06/17 14:45:30;;;;;;;12.60;4.28;;;;;;;;;;9561545;29;20052;-71
2022/06/17 14:50:39;;;;;;;5.75;4.63;;;;;;;;;;9577898;29;20055;-72
2022/06/17 14:55:36;;;;;;;10.10;4.45;;;;;;;;;;9577677;30;20050;-71
2022/06/17 15:00:35;;;;;;;11.25;3.92;;;;;;;;;;9562508;30;20043;-73
2022/06/17 15:05:35;;;;;;;5.97;5.38;;;;;;;;;;9575815;30;20055;-71
2022/06/17 15:10:53;;;;;;;5.57;5.07;;;;;;;;;;9577786;29;20055;-69
2022/06/17 15:15:46;;;;;;;7.78;4.20;;;;;;;;;;9576124;30;20545;-74
2022/06/17 15:20:42;;;;;;;12.23;4.25;;;;;;;;;;9573048;30;20047;-73
2022/06/17 15:25:56;;;;;;;11.80;4.45;;;;;;;;;;9574694;30;20496;-73
2022/06/17 15:30:50;;;;;;;5.45;4.72;;;;;;;;;;9575743;30;20055;-72
2022/06/17 15:35:44;;;;;;;8.27;4.35;;;;;;;;;;9560871;30;20055;-74
2022/06/17 15:40:39;;;;;;;7.20;4.22;;;;;;;;;;9573061;29;20085;-72
2022/06/17 15:45:33;;;;;;;12.43;3.90;;;;;;;;;;9572412;29;20063;-73
2022/06/17 15:50:31;;;;;;;5.55;3.97;;;;;;;;;;9572831;30;20135;-71
2022/06/17 15:55:27;;;;;;;6.50;4.00;;;;;;;;;;9555774;30;20059;-69
2022/06/17 16:00:41;;;;;;;9.75;4.15;;;;;;;;;;9574869;30;20070;-70
2022/06/17 16:05:41;;;;;;;7.68;4.45;;;;;;;;;;9576600;30;20055;-69
2022/06/17 16:11:09;;;;;;;;;;;;;;;;;;9573261;30;20070;-72
2022/06/17 16:16:06;;;;;;;8.70;4.38;;;;;;;;;;9574671;29;19925;-77
2022/06/17 16:21:25;;;;;;;4.47;3.85;;;;;;;;;;9575537;30;20100;-76
2022/06/17 16:26:20;;;;;;;5.97;3.90;;;;;;;;;;9574403;30;20071;-73
2022/06/17 16:31:25;;;;;;;6.80;4.20;;;;;;;;;;9574727;29;20056;-73
2022/06/17 16:36:31;;;;;;;6.80;4.75;;;;;;;;;;9572540;30;20048;-74
2022/06/17 16:46:58;;;;;;;6.18;4.22;;;;;;;;;;9576611;30;20051;-80
2022/06/17 16:51:52;;;;;;;8.73;4.45;;;;;;;;;;9571207;30;20145;-80
2022/06/17 16:56:49;;;;;;;6.78;4.15;;;;;;;;;;9573736;30;20127;-83
2022/06/17 17:01:43;;;;;;;7.90;4.38;;;;;;;;;;9572513;30;20047;-82
2022/06/17 17:06:37;;;;;;;7.95;4.93;;;;;;;;;;9575546;30;20511;-74
2022/06/17 17:11:31;;;;;;;5.30;3.70;;;;;;;;;;9576577;30;20058;-75
2022/06/17 17:16:27;;;;;;;6.93;4.32;;;;;;;;;;9559768;30;20093;-75
2022/06/17 17:21:26;;;;;;;6.63;4.20;;;;;;;;;;9573591;30;20062;-75
2022/06/17 17:26:20;;;;;;;20.10;5.38;;;;;;;;;;9575142;30;20055;-77
2022/06/17 17:31:14;;;;;;;8.13;5.13;;;;;;;;;;9575693;30;20047;-75
2022/06/17 17:36:07;;;;;;;6.38;4.30;;;;;;;;;;9575963;30;20093;-74
2022/06/17 17:46:13;;;;;;;9.30;6.05;;;;;;;;;;9562226;30;20071;-73
2022/06/17 17:51:14;;;;;;;6.97;5.28;;;;;;;;;;9557658;30;20134;-73
2022/06/17 17:56:07;;;;;;;13.15;6.50;;;;;;;;;;9571721;29;20063;-74
2022/06/17 18:01:02;;;;;;;6.32;5.50;;;;;;;;;;9558766;30;20142;-73
2022/06/17 18:05:58;;;;;;;5.55;5.00;;;;;;;;;;9573311;29;20570;-76
2022/06/17 18:10:53;;;;;;;19.40;6.82;;;;;;;;;;9579264;29;20071;-74
2022/06/17 18:15:49;;;;;;;14.20;5.70;;;;;;;;;;9579642;30;20534;-74
2022/06/17 18:20:43;;;;;;;10.60;6.55;;;;;;;;;;9573749;30;20059;-74
2022/06/17 18:25:38;;;;;;;12.23;6.05;;;;;;;;;;9578876;30;20055;-74
2022/06/17 18:30:34;;;;;;;10.05;6.82;;;;;;;;;;9575804;29;20047;-71
2022/06/17 18:35:32;;;;;;;10.85;6.72;;;;;;;;;;9560074;29;20493;-71
2022/06/17 18:40:30;;;;;;;8.98;7.65;;;;;;;;;;9575050;29;20055;-72
2022/06/17 18:45:25;;;;;;;;;;;;;;;;;;9573502;29;20104;-71
2022/06/17 18:50:37;;;;;;;12.18;6.85;;;;;;;;;;9576343;29;20313;-72
2022/06/17 18:55:31;;;;;;;7.60;6.13;;;;;;;;;;9575236;29;20065;-71
2022/06/17 19:00:27;;;;;;;9.43;6.05;;;;;;;;;;9572746;29;20055;-75
2022/06/17 19:05:43;;;;;;;13.05;7.18;;;;;;;;;;9576594;29;20087;-79
2022/06/17 19:21:07;;;;;;;20.58;8.90;;;;;;;;;;9557407;29;20752;-76
2022/06/17 19:26:01;;;;;;;15.55;8.43;;;;;;;;;;9572050;29;20043;-77
2022/06/17 19:30:56;;;;;;;15.65;8.40;;;;;;;;;;9575815;29;20483;-78
2022/06/17 19:35:57;;;;;;;18.83;7.78;;;;;;;;;;9575866;29;20130;-73
2022/06/17 19:41:42;;;;;;;12.32;8.27;;;;;;;;;;9574550;29;20104;-74
2022/06/17 19:46:14;;;;;;;8.77;7.78;;;;;;;;;;9572224;29;20102;-73
2022/06/17 19:51:17;;;;;;;11.18;7.68;;;;;;;;;;9574745;29;20074;-75
2022/06/17 19:56:39;;;;;;;14.35;8.05;;;;;;;;;;9570233;29;20134;-74
2022/06/17 20:01:41;;;;;;;11.70;7.35;;;;;;;;;;9572529;29;20051;-74
2022/06/17 20:06:36;;;;;;;11.77;7.88;;;;;;;;;;9573864;29;20154;-74
2022/06/17 20:11:38;;;;;;;11.40;8.40;;;;;;;;;;9572624;29;20056;-74
2022/06/17 20:16:33;;;;;;;14.52;8.73;;;;;;;;;;9572749;29;20123;-76
2022/06/17 20:21:27;;;;;;;29.20;9.15;;;;;;;;;;9572145;29;20055;-75
2022/06/17 20:26:21;;;;;;;15.35;8.43;;;;;;;;;;9574280;30;20052;-74
2022/06/17 20:31:34;;;;;;;11.95;8.65;;;;;;;;;;9573470;29;20055;-74
2022/06/17 20:36:29;;;;;;;13.05;8.60;;;;;;;;;;9570730;30;20112;-75
2022/06/17 20:41:23;;;;;;;16.58;9.48;;;;;;;;;;9556412;29;20108;-70
2022/06/17 20:51:30;;;;;;;17.80;8.40;;;;;;;;;;9574017;29;20142;-75
2022/06/17 20:56:29;;;;;;;14.18;11.30;;;;;;;;;;9570919;29;20061;-74
2022/06/17 21:01:26;;;;;;;17.25;10.40;;;;;;;;;;9572239;29;20135;-76
2022/06/17 21:06:32;;;;;;;11.40;10.38;;;;;;;;;;9571599;29;20051;-75
2022/06/17 21:11:27;;;;;;;21.52;12.07;;;;;;;;;;9570111;29;20533;-75
2022/06/17 21:16:20;;;;;;;12.82;11.00;;;;;;;;;;9569897;29;20063;-76
2022/06/17 21:21:19;;;;;;;26.13;11.48;;;;;;;;;;9568565;29;20112;-76
2022/06/17 21:26:16;;;;;;;13.27;11.25;;;;;;;;;;9557091;29;20526;-73
2022/06/17 21:31:12;;;;;;;13.87;10.80;;;;;;;;;;9574110;29;20056;-71
2022/06/17 21:36:09;;;;;;;13.05;11.65;;;;;;;;;;9572910;29;20058;-72
2022/06/17 21:41:04;;;;;;;17.53;12.40;;;;;;;;;;9557600;29;20055;-72
2022/06/17 21:45:58;;;;;;;13.75;12.40;;;;;;;;;;9581520;29;20495;-71
2022/06/17 21:50:52;;;;;;;13.55;11.05;;;;;;;;;;9580512;29;20396;-73
2022/06/17 21:55:49;;;;;;;14.20;11.55;;;;;;;;;;9582350;29;20059;-73
2022/06/17 22:00:45;;;;;;;22.60;12.05;;;;;;;;;;9576679;29;20059;-71
2022/06/17 22:05:40;;;;;;;19.13;12.83;;;;;;;;;;9577975;29;20399;-73
2022/06/17 22:10:38;;;;;;;14.75;13.23;;;;;;;;;;9573964;29;20516;-71
2022/06/17 22:15:32;;;;;;;22.07;14.30;;;;;;;;;;9578559;29;20067;-73
2022/06/17 22:20:33;;;;;;;14.40;12.88;;;;;;;;;;9569140;29;20078;-72
2022/06/17 22:25:27;;;;;;;17.00;15.10;;;;;;;;;;9579190;29;20108;-73
2022/06/17 22:30:40;;;;;;;13.52;12.35;;;;;;;;;;9578617;29;20054;-73
2022/06/17 22:35:34;;;;;;;15.10;13.77;;;;;;;;;;9572559;29;20051;-72
2022/06/17 22:40:31;;;;;;;15.05;13.43;;;;;;;;;;9561663;29;20081;-73
2022/06/17 22:45:26;;;;;;;19.88;12.68;;;;;;;;;;9577264;29;20063;-73
2022/06/17 22:50:44;;;;;;;16.48;12.75;;;;;;;;;;9561557;29;20051;-74
2022/06/17 22:55:39;;;;;;;15.60;14.10;;;;;;;;;;9558599;29;20067;-73
2022/06/17 23:00:35;;;;;;;14.30;13.00;;;;;;;;;;9577876;29;20062;-71
2022/06/17 23:05:31;;;;;;;13.77;12.32;;;;;;;;;;9573579;29;20115;-72
2022/06/17 23:10:26;;;;;;;15.38;13.75;;;;;;;;;;9570795;29;20173;-73
2022/06/17 23:15:21;;;;;;;14.48;12.90;;;;;;;;;;9570274;29;20062;-72
2022/06/17 23:20:16;;;;;;;17.63;12.25;;;;;;;;;;9558059;29;20051;-72
2022/06/17 23:25:27;;;;;;;13.43;12.13;;;;;;;;;;9577199;29;20514;-72
2022/06/17 23:30:24;;;;;;;13.60;12.13;;;;;;;;;;9572706;29;20130;-71
2022/06/17 23:35:28;;;;;;;14.55;12.73;;;;;;;;;;9580310;29;20085;-72
2022/06/17 23:40:29;;;;;;;14.80;13.50;;;;;;;;;;9556273;29;20079;-72
2022/06/17 23:45:24;;;;;;;16.15;14.57;;;;;;;;;;9578200;30;20562;-72
2022/06/17 23:50:23;;;;;;;16.52;14.73;;;;;;;;;;9578639;30;20081;-71
2022/06/17 23:55:17;;;;;;;16.40;14.63;;;;;;;;;;9578165;30;20063;-70
